Time;durP1;ratioP1;P1;durP2;ratioP2;P2;SDS_P1;SDS_P2;PMS_P1;PMS_P2;Temp;Humidity;BMP_temperature;BMP_pressure;BME280_temperature;BME280_humidity;BME280_pressure;Samples;Min_cycle;Max_cycle;Signal;HPM_P1;HPM_P2
2022/01/29 00:01:38;;;;;;;47.30;25.23;;;;;;;5.06;92.38;102849.78;5053220;28;20160;-53
2022/01/29 00:04:04;;;;;;;41.75;22.23;;;;;;;5.09;92.21;102848.50;5052887;28;20025;-53
2022/01/29 00:06:29;;;;;;;44.70;24.63;;;;;;;5.06;92.72;102840.69;5053107;28;20029;-51
2022/01/29 00:08:56;;;;;;;46.70;24.92;;;;;;;5.10;92.12;102829.06;5052728;28;20021;-53
2022/01/29 00:11:27;;;;;;;49.60;26.50;;;;;;;5.02;92.74;102818.34;5053003;28;20415;-53
2022/01/29 00:13:53;;;;;;;50.53;26.85;;;;;;;5.09;92.03;102826.56;5053732;28;20582;-50
2022/01/29 00:16:18;;;;;;;46.95;24.70;;;;;;;5.02;92.91;102834.00;5053468;28;20100;-49
2022/01/29 00:18:43;;;;;;;48.22;28.35;;;;;;;5.06;92.77;102821.50;5052941;28;20029;-52
2022/01/29 00:21:09;;;;;;;46.05;23.92;;;;;;;5.07;92.72;102825.94;5053558;28;20029;-53
2022/01/29 00:23:34;;;;;;;48.55;26.50;;;;;;;5.17;92.25;102822.72;5052868;28;20120;-53
2022/01/29 00:26:00;;;;;;;48.10;25.92;;;;;;;5.15;92.38;102815.53;5052823;28;20108;-53
2022/01/29 00:28:27;;;;;;;48.80;24.95;;;;;;;5.20;92.23;102811.28;5053448;28;20029;-54
2022/01/29 00:30:52;;;;;;;44.58;24.60;;;;;;;5.20;92.24;102814.03;5052857;28;20110;-53
2022/01/29 00:33:18;;;;;;;44.83;24.92;;;;;;;5.16;92.68;102797.16;5053079;28;20480;-55
2022/01/29 00:35:44;;;;;;;46.25;24.83;;;;;;;5.24;92.46;102798.81;5053066;28;20035;-53
2022/01/29 00:38:09;;;;;;;49.28;26.90;;;;;;;5.18;92.77;102806.03;5052447;28;20033;-53
2022/01/29 00:40:37;;;;;;;46.67;25.60;;;;;;;5.21;92.61;102800.09;5052513;28;20035;-55
2022/01/29 00:43:04;;;;;;;48.65;26.67;;;;;;;5.15;92.84;102804.56;5052994;28;20104;-50
2022/01/29 00:45:30;;;;;;;47.83;26.00;;;;;;;5.19;92.80;102809.63;5052314;28;20369;-52
2022/01/29 00:47:55;;;;;;;46.28;25.52;;;;;;;5.20;93.03;102803.03;5052753;28;20067;-51
2022/01/29 00:50:20;;;;;;;46.42;25.80;;;;;;;5.21;92.68;102791.88;5053265;28;20384;-51
2022/01/29 00:52:47;;;;;;;44.85;25.05;;;;;;;5.23;92.45;102786.16;5052912;28;20460;-51
2022/01/29 00:55:14;;;;;;;45.53;25.35;;;;;;;5.19;92.95;102791.25;5052811;28;20021;-52
2022/01/29 00:57:40;;;;;;;48.10;26.83;;;;;;;5.21;92.94;102782.78;5052369;28;20021;-50
2022/01/29 01:00:07;;;;;;;44.50;24.48;;;;;;;5.23;92.78;102770.53;5052454;28;20051;-50
2022/01/29 01:02:33;;;;;;;44.30;24.40;;;;;;;5.27;92.19;102766.28;5051817;28;20037;-50
2022/01/29 01:04:58;;;;;;;45.97;26.38;;;;;;;5.19;93.32;102754.75;5051724;28;20036;-53
2022/01/29 01:07:23;;;;;;;43.33;23.90;;;;;;;5.25;93.03;102749.19;5052303;28;20380;-53
2022/01/29 01:09:49;;;;;;;44.33;23.77;;;;;;;5.23;93.32;102742.25;5051825;28;20094;-52
2022/01/29 01:12:14;;;;;;;49.97;26.48;;;;;;;5.27;93.33;102736.09;5052307;28;20033;-51
2022/01/29 01:14:39;;;;;;;44.00;25.23;;;;;;;5.22;93.75;102730.44;5052343;28;20093;-52
2022/01/29 01:17:05;;;;;;;51.05;26.88;;;;;;;5.19;94.02;102724.56;5052246;28;20464;-50
2022/01/29 01:19:31;;;;;;;46.90;25.13;;;;;;;5.21;93.84;102719.66;5051979;28;20039;-52
2022/01/29 01:21:57;;;;;;;48.35;26.48;;;;;;;5.22;nan;102716.72;5052492;28;20021;-50
2022/01/29 01:24:24;;;;;;;49.60;26.23;;;;;;;5.26;93.87;102711.63;5052014;28;20158;-51
2022/01/29 01:26:51;;;;;;;46.28;25.50;;;;;;;5.27;93.71;102702.31;5052382;28;20388;-50
2022/01/29 01:29:17;;;;;;;51.33;27.80;;;;;;;5.23;93.79;102696.44;5052503;28;20025;-50
2022/01/29 01:31:44;;;;;;;47.13;25.23;;;;;;;5.24;94.16;102703.59;5052250;28;20028;-53
2022/01/29 01:34:14;;;;;;;49.17;27.30;;;;;;;5.25;94.38;102687.97;5052697;28;20527;-49
2022/01/29 01:36:46;;;;;;;50.03;25.33;;;;;;;5.27;94.48;102691.34;5052673;28;20025;-50
2022/01/29 01:39:15;;;;;;;43.70;25.00;;;;;;;5.20;95.12;102685.06;5050785;28;20392;-53
2022/01/29 01:41:47;;;;;;;48.22;27.50;;;;;;;5.24;94.73;102683.56;5052109;28;20028;-52
2022/01/29 01:44:14;;;;;;;45.45;26.90;;;;;;;5.20;95.21;102687.81;5052484;28;20029;-49
2022/01/29 01:46:39;;;;;;;45.92;27.73;;;;;;;5.21;95.18;102687.59;5052633;28;20056;-49
2022/01/29 01:49:04;;;;;;;47.78;27.77;;;;;;;5.29;94.71;102681.00;5052278;28;20465;-49
2022/01/29 01:51:30;;;;;;;49.95;28.42;;;;;;;5.24;94.56;102676.16;5052573;28;20040;-48
2022/01/29 01:53:55;;;;;;;41.40;23.25;;;;;;;5.26;94.99;102670.47;5051374;28;20483;-49
2022/01/29 01:56:20;;;;;;;50.83;26.42;;;;;;;5.21;95.32;102662.91;5052229;28;20387;-49
2022/01/29 01:58:46;;;;;;;44.58;24.05;;;;;;;5.24;95.51;102667.91;5056108;28;20025;-51
2022/01/29 02:01:11;;;;;;;47.85;27.90;;;;;;;5.15;96.17;102661.03;5056007;28;20070;-48
2022/01/29 02:03:37;;;;;;;48.85;27.05;;;;;;;5.12;96.41;102658.75;5056103;28;20484;-49
2022/01/29 02:06:02;;;;;;;47.58;27.00;;;;;;;5.11;97.04;102665.31;5055467;28;20395;-48
2022/01/29 02:08:28;;;;;;;47.97;27.40;;;;;;;5.14;96.57;102660.22;5055455;28;20041;-48
2022/01/29 02:11:01;;;;;;;48.70;27.40;;;;;;;5.05;97.34;102647.00;5055652;28;20021;-49
2022/01/29 02:13:28;;;;;;;47.55;26.95;;;;;;;5.08;97.16;102654.78;5055539;28;20052;-48
2022/01/29 02:15:55;;;;;;;47.78;26.67;;;;;;;5.02;98.58;102651.03;5056001;28;20021;-50
2022/01/29 02:18:20;;;;;;;45.22;25.17;;;;;;;5.06;97.90;102645.91;5055666;28;20032;-48
2022/01/29 02:20:45;;;;;;;48.00;25.83;;;;;;;5.07;97.71;102640.22;5055721;28;20108;-52
2022/01/29 02:23:11;;;;;;;48.38;26.58;;;;;;;5.06;97.97;102641.28;5054732;28;20047;-49
2022/01/29 02:25:42;;;;;;;44.97;25.60;;;;;;;5.00;98.17;102623.00;5053917;28;20028;-49
2022/01/29 02:28:11;;;;;;;41.58;23.88;;;;;;;5.03;98.18;102633.50;5055481;28;20071;-50
2022/01/29 02:30:39;;;;;;;43.78;24.15;;;;;;;5.09;98.54;102638.09;5055597;28;20087;-49
2022/01/29 02:33:08;;;;;;;46.00;25.52;;;;;;;5.07;98.25;102642.13;5055332;28;20031;-50
2022/01/29 02:35:40;;;;;;;41.97;24.27;;;;;;;5.04;99.38;102631.63;5055432;28;20053;-49
2022/01/29 02:38:06;;;;;;;41.33;23.50;;;;;;;5.04;99.13;102624.22;5054927;28;20431;-48
2022/01/29 02:40:36;;;;;;;41.03;25.02;;;;;;;5.02;99.12;102626.34;5055069;28;20055;-51
2022/01/29 02:43:20;;;;;;;42.53;23.52;;;;;;;5.06;98.98;102605.63;5055237;28;20063;-49
2022/01/29 02:45:46;;;;;;;43.55;23.65;;;;;;;5.04;98.81;102609.66;5055371;28;20036;-49
2022/01/29 02:48:12;;;;;;;42.45;24.42;;;;;;;5.03;99.24;102606.06;5055185;28;20064;-49
2022/01/29 02:50:38;;;;;;;43.83;24.55;;;;;;;5.03;99.50;102613.47;5054999;28;20111;-49
2022/01/29 02:53:04;;;;;;;40.53;22.40;;;;;;;5.04;99.53;102602.25;5053729;28;20049;-49
2022/01/29 02:55:30;;;;;;;42.20;23.52;;;;;;;5.00;99.99;102606.53;5054543;28;20357;-50
2022/01/29 02:57:56;;;;;;;43.13;23.90;;;;;;;4.96;100.00;102605.31;5054916;28;20032;-49
2022/01/29 03:00:21;;;;;;;40.80;22.27;;;;;;;5.00;99.94;102593.66;5054866;28;20373;-49
2022/01/29 03:02:47;;;;;;;43.08;23.20;;;;;;;4.98;100.00;102603.19;5054341;28;20032;-49
2022/01/29 03:05:12;;;;;;;38.92;21.83;;;;;;;5.03;100.00;102597.84;5054719;28;20491;-51
2022/01/29 03:07:38;;;;;;;39.72;22.33;;;;;;;5.08;100.00;102600.75;5054520;28;20104;-48
2022/01/29 03:10:05;;;;;;;41.67;23.92;;;;;;;5.09;99.99;102588.72;5053506;28;20031;-48
2022/01/29 03:12:30;;;;;;;41.33;22.05;;;;;;;5.07;100.00;102587.25;5053546;28;20029;-48
2022/01/29 03:14:55;;;;;;;36.70;20.42;;;;;;;5.13;100.00;102580.88;5053337;28;20029;-50
2022/01/29 03:17:21;;;;;;;38.47;21.30;;;;;;;5.14;100.00;102574.31;5053275;28;20549;-49
2022/01/29 03:19:46;;;;;;;37.40;21.38;;;;;;;5.14;100.00;102577.06;5053449;28;20066;-48
2022/01/29 03:22:11;;;;;;;38.97;22.40;;;;;;;5.14;100.00;102561.44;5053389;28;20060;-51
2022/01/29 03:24:37;;;;;;;38.45;22.20;;;;;;;5.23;99.61;102563.88;5053539;28;20029;-52
2022/01/29 03:27:02;;;;;;;41.05;21.50;;;;;;;5.16;99.86;102563.94;5053355;28;20021;-51
2022/01/29 03:29:28;;;;;;;39.60;22.10;;;;;;;5.14;100.00;102561.44;5054052;28;20110;-48
2022/01/29 03:31:53;;;;;;;37.88;21.73;;;;;;;5.22;99.73;102552.06;5053864;28;20021;-51
2022/01/29 03:34:18;;;;;;;38.67;22.05;;;;;;;5.25;99.80;102562.56;5054411;28;20033;-51
2022/01/29 03:36:44;;;;;;;36.83;21.58;;;;;;;5.21;100.00;102557.78;5053585;28;20017;-52
2022/01/29 03:39:09;;;;;;;35.78;20.02;;;;;;;5.26;99.99;102550.53;5053962;28;20040;-49
2022/01/29 03:41:34;;;;;;;39.33;22.38;;;;;;;5.25;100.00;102548.03;5053678;28;20028;-51
2022/01/29 03:44:04;;;;;;;43.03;21.23;;;;;;;5.28;100.00;102542.91;5053418;28;20056;-52
2022/01/29 03:46:29;;;;;;;41.88;24.30;;;;;;;5.25;100.00;102531.56;5054238;28;20025;-51
2022/01/29 03:48:55;;;;;;;43.70;23.17;;;;;;;5.28;99.95;102550.34;5053607;28;20032;-52
2022/01/29 03:51:20;;;;;;;40.80;22.73;;;;;;;5.29;100.00;102536.38;5053865;28;20028;-52
2022/01/29 03:53:47;;;;;;;43.83;24.48;;;;;;;5.24;100.00;102538.94;5053792;28;20045;-52
2022/01/29 03:56:13;;;;;;;41.83;22.77;;;;;;;5.29;100.00;102543.78;5053886;28;20021;-52
2022/01/29 03:58:38;;;;;;;43.58;22.90;;;;;;;5.28;100.00;102537.44;5053209;28;20083;-51
2022/01/29 04:01:03;;;;;;;41.05;23.02;;;;;;;5.33;100.00;102542.22;5052454;28;20452;-52
2022/01/29 04:03:28;;;;;;;43.95;23.38;;;;;;;5.37;100.00;102540.72;5053486;28;20219;-50
2022/01/29 04:05:54;;;;;;;41.33;23.73;;;;;;;5.37;100.00;102540.72;5053487;28;20115;-52
2022/01/29 04:08:19;;;;;;;42.35;23.17;;;;;;;5.34;100.00;102535.69;5053377;28;20441;-51
2022/01/29 04:10:47;;;;;;;43.40;23.63;;;;;;;5.34;100.00;102538.44;5053189;28;20032;-48
2022/01/29 04:13:14;;;;;;;44.92;23.70;;;;;;;5.32;100.00;102526.84;5053166;28;20021;-49
2022/01/29 04:15:39;;;;;;;44.97;24.50;;;;;;;5.33;100.00;102531.25;5053357;28;20025;-49
2022/01/29 04:18:04;;;;;;;45.05;24.27;;;;;;;5.34;100.00;102538.44;5052968;28;20032;-49
2022/01/29 04:20:30;;;;;;;39.90;21.38;;;;;;;5.40;100.00;102533.94;5052623;28;20028;-50
2022/01/29 04:22:55;;;;;;;46.25;23.85;;;;;;;5.39;100.00;102529.50;5053050;28;20029;-52
2022/01/29 04:25:23;;;;;;;44.05;21.40;;;;;;;5.44;100.00;102516.78;5051972;28;20079;-50
2022/01/29 04:27:48;;;;;;;43.65;24.23;;;;;;;5.43;100.00;102517.00;5053399;28;20029;-52
2022/01/29 04:30:44;;;;;;;42.00;24.08;;;;;;;5.42;100.00;102512.59;5052546;28;20040;-48
2022/01/29 04:35:41;;;;;;;38.25;21.42;;;;;;;5.40;100.00;102520.22;5053689;28;20033;-50
2022/01/29 04:38:07;;;;;;;42.20;22.17;;;;;;;5.41;100.00;102521.88;5053027;28;20017;-50
2022/01/29 04:40:33;;;;;;;40.85;22.17;;;;;;;5.42;100.00;102509.84;5053068;28;20087;-52
2022/01/29 04:42:59;;;;;;;43.22;24.40;;;;;;;5.43;100.00;102509.59;5052720;28;20119;-49
2022/01/29 04:45:25;;;;;;;39.58;21.55;;;;;;;5.44;100.00;102505.78;5052120;28;20487;-49
2022/01/29 04:47:50;;;;;;;41.35;22.05;;;;;;;5.45;100.00;102507.47;5052256;28;20114;-49
2022/01/29 04:50:15;;;;;;;40.28;22.40;;;;;;;5.50;100.00;102503.19;5052307;28;20032;-47
2022/01/29 04:52:41;;;;;;;42.88;23.20;;;;;;;5.47;100.00;102494.34;5052653;28;20499;-50
2022/01/29 04:55:07;;;;;;;43.17;23.05;;;;;;;5.49;100.00;102493.25;5052142;28;20124;-51
2022/01/29 04:57:32;;;;;;;43.78;22.95;;;;;;;5.52;100.00;102493.66;5052061;28;20025;-49
2022/01/29 04:59:59;;;;;;;42.92;22.75;;;;;;;5.53;100.00;102483.50;5051801;28;20028;-49
2022/01/29 05:02:24;;;;;;;40.40;21.13;;;;;;;5.54;100.00;102477.78;5052564;28;20064;-48
2022/01/29 05:04:49;;;;;;;42.35;22.70;;;;;;;5.51;100.00;102469.16;5051561;28;20052;-50
2022/01/29 05:07:15;;;;;;;41.38;22.55;;;;;;;5.59;100.00;102469.69;5052237;28;20384;-49
2022/01/29 05:09:40;;;;;;;40.45;22.13;;;;;;;5.61;100.00;102464.81;5052426;28;20039;-48
2022/01/29 05:12:06;;;;;;;41.42;21.85;;;;;;;5.60;100.00;102474.13;5052720;28;20485;-52
2022/01/29 05:14:44;;;;;;;43.20;22.33;;;;;;;5.59;100.00;102475.19;5052005;28;20029;-48
2022/01/29 05:27:53;;;;;;;45.93;22.63;;;;;;;5.69;100.00;102471.03;5052387;28;19916;-49
2022/01/29 05:30:18;;;;;;;46.83;22.35;;;;;;;5.70;100.00;102472.72;5051318;28;20029;-51
2022/01/29 05:32:43;;;;;;;47.25;24.17;;;;;;;5.69;100.00;102469.13;5055946;28;20037;-48
2022/01/29 05:35:08;;;;;;;46.33;25.58;;;;;;;5.74;100.00;102472.03;5056498;28;20028;-51
2022/01/29 05:37:34;;;;;;;45.22;24.00;;;;;;;5.72;100.00;102462.31;5056494;28;20079;-49
2022/01/29 05:39:59;;;;;;;42.42;23.95;;;;;;;5.73;100.00;102456.63;5055287;28;20017;-52
2022/01/29 05:42:24;;;;;;;45.80;23.92;;;;;;;5.81;100.00;102454.59;5056267;28;20021;-53
2022/01/29 05:44:50;;;;;;;44.13;23.50;;;;;;;5.80;100.00;102453.78;5056027;28;20124;-54
2022/01/29 05:47:15;;;;;;;46.63;23.48;;;;;;;5.83;100.00;102456.03;5055994;28;20021;-52
2022/01/29 05:49:40;;;;;;;42.67;22.55;;;;;;;5.82;100.00;102456.28;5055915;28;20035;-53
2022/01/29 05:52:05;;;;;;;45.83;24.70;;;;;;;5.83;100.00;102458.78;5055743;28;20055;-50
2022/01/29 05:54:31;;;;;;;45.63;24.15;;;;;;;5.87;100.00;102454.50;5055969;28;20045;-51
2022/01/29 05:56:57;;;;;;;48.33;24.15;;;;;;;5.88;100.00;102447.09;5054990;28;20069;-51
2022/01/29 05:59:22;;;;;;;46.67;25.08;;;;;;;5.85;100.00;102453.91;5056002;28;20033;-49
2022/01/29 06:01:47;;;;;;;45.33;24.38;;;;;;;5.89;100.00;102452.38;5056194;28;20518;-52
2022/01/29 06:04:13;;;;;;;47.05;24.70;;;;;;;5.91;100.00;102444.72;5055806;28;20455;-52
2022/01/29 06:06:38;;;;;;;49.13;26.48;;;;;;;5.96;100.00;102438.50;5055888;28;20091;-50
2022/01/29 06:09:04;;;;;;;48.70;25.67;;;;;;;5.98;100.00;102439.13;5055326;28;20021;-51
2022/01/29 06:11:31;;;;;;;45.40;25.55;;;;;;;6.03;100.00;102438.44;5055971;28;20044;-49
2022/01/29 06:13:57;;;;;;;48.80;26.00;;;;;;;6.02;100.00;102437.63;5055496;28;20100;-52
2022/01/29 06:16:22;;;;;;;48.17;25.17;;;;;;;5.99;100.00;102434.47;5055713;28;20060;-52
2022/01/29 06:18:47;;;;;;;50.22;25.40;;;;;;;5.99;100.00;102428.97;5054858;28;20032;-53
2022/01/29 06:21:14;;;;;;;50.55;26.83;;;;;;;6.01;100.00;102424.94;5054634;28;20350;-53
2022/01/29 06:23:39;;;;;;;47.92;26.35;;;;;;;6.03;100.00;102435.69;5055755;28;20048;-53
2022/01/29 06:26:07;;;;;;;46.85;26.67;;;;;;;6.00;100.00;102431.50;5054879;28;20453;-51
2022/01/29 06:28:33;;;;;;;45.40;24.75;;;;;;;6.04;100.00;102432.72;5055244;28;20025;-50
2022/01/29 06:30:59;;;;;;;51.80;27.60;;;;;;;6.04;100.00;102432.72;5055580;28;20025;-50
2022/01/29 06:33:25;;;;;;;46.42;26.73;;;;;;;6.03;100.00;102422.81;5054690;28;20075;-53
2022/01/29 06:35:50;;;;;;;47.10;25.77;;;;;;;6.12;100.00;102422.47;5054973;28;20040;-50
2022/01/29 06:38:16;;;;;;;49.28;26.85;;;;;;;6.09;100.00;102410.03;5055039;28;20108;-50
2022/01/29 06:40:42;;;;;;;47.13;26.98;;;;;;;6.11;100.00;102416.09;5054956;28;20032;-49
2022/01/29 06:43:08;;;;;;;49.50;27.10;;;;;;;6.15;100.00;102413.72;5053593;28;20551;-52
2022/01/29 06:45:35;;;;;;;51.45;28.23;;;;;;;6.18;100.00;102411.34;5054837;28;20087;-52
2022/01/29 06:48:01;;;;;;;48.35;25.63;;;;;;;6.19;100.00;102407.50;5055150;28;20476;-53
2022/01/29 06:50:27;;;;;;;52.15;27.02;;;;;;;6.18;100.00;102403.13;5055143;28;20025;-51
2022/01/29 06:52:53;;;;;;;48.28;27.38;;;;;;;6.20;100.00;102405.63;5055459;28;20056;-52
2022/01/29 06:55:19;;;;;;;50.95;27.60;;;;;;;6.21;100.00;102390.81;5054929;28;20061;-52
2022/01/29 06:57:44;;;;;;;48.95;27.50;;;;;;;6.26;100.00;102392.84;5054961;28;20037;-52
2022/01/29 07:00:10;;;;;;;46.63;25.65;;;;;;;6.25;100.00;102389.22;5053856;28;20526;-50
2022/01/29 07:02:36;;;;;;;49.22;26.63;;;;;;;6.26;100.00;102388.16;5054748;28;20025;-52
2022/01/29 07:05:04;;;;;;;48.05;27.77;;;;;;;6.29;100.00;102386.84;5054843;28;20033;-51
2022/01/29 07:07:29;;;;;;;45.88;23.63;;;;;;;6.32;100.00;102383.63;5054776;28;20036;-50
2022/01/29 07:09:55;;;;;;;49.10;28.17;;;;;;;6.31;100.00;102379.19;5054779;28;20017;-53
2022/01/29 07:12:20;;;;;;;48.08;25.85;;;;;;;6.39;100.00;102376.94;5054882;28;20039;-52
2022/01/29 07:14:49;;;;;;;45.97;25.13;;;;;;;6.48;100.00;102377.38;5054193;28;20096;-50
2022/01/29 07:17:17;;;;;;;47.22;27.17;;;;;;;6.47;100.00;102372.13;5054944;28;20032;-52
2022/01/29 07:19:44;;;;;;;46.15;27.52;;;;;;;6.46;100.00;102378.72;5054790;28;20028;-52
2022/01/29 07:22:10;;;;;;;49.45;27.52;;;;;;;6.47;100.00;102386.69;5053152;28;20421;-54
2022/01/29 07:24:36;;;;;;;48.83;27.55;;;;;;;6.50;100.00;102378.00;5053074;28;20115;-53
2022/01/29 07:27:02;;;;;;;49.95;27.02;;;;;;;6.52;100.00;102375.84;5053222;28;20119;-53
2022/01/29 07:29:27;;;;;;;48.00;27.05;;;;;;;6.53;100.00;102383.00;5053110;28;20029;-47
2022/01/29 07:31:54;;;;;;;44.97;25.75;;;;;;;6.55;100.00;102378.13;5054376;28;20029;-54
2022/01/29 07:34:19;;;;;;;49.75;29.27;;;;;;;6.53;100.00;102373.91;5054137;28;20025;-52
2022/01/29 07:36:44;;;;;;;51.17;27.73;;;;;;;6.59;100.00;102380.38;5054262;28;20025;-53
2022/01/29 07:39:10;;;;;;;48.17;27.13;;;;;;;6.63;100.00;102376.88;5054075;28;20187;-53
2022/01/29 07:41:36;;;;;;;48.17;26.88;;;;;;;6.62;100.00;102388.13;5053886;28;20040;-53
2022/01/29 07:44:01;;;;;;;46.95;27.60;;;;;;;6.61;100.00;102376.31;5054485;28;20068;-52
2022/01/29 07:46:26;;;;;;;48.30;27.85;;;;;;;6.64;100.00;102377.75;5053806;28;20391;-51
2022/01/29 07:48:52;;;;;;;47.03;27.77;;;;;;;6.69;100.00;102377.84;5053760;28;20483;-53
2022/01/29 07:51:17;;;;;;;48.30;27.60;;;;;;;6.71;100.00;102370.19;5054076;28;20032;-53
2022/01/29 07:53:42;;;;;;;46.70;28.35;;;;;;;6.70;100.00;102363.00;5053199;28;20474;-53
2022/01/29 07:56:08;;;;;;;47.10;24.67;;;;;;;6.74;100.00;102366.97;5053229;28;20025;-53
2022/01/29 07:58:33;;;;;;;49.60;26.67;;;;;;;6.72;100.00;102372.69;5051826;28;20125;-53
2022/01/29 08:00:58;;;;;;;47.05;26.58;;;;;;;6.73;100.00;102359.78;5053173;28;20027;-54
2022/01/29 08:03:23;;;;;;;46.58;27.27;;;;;;;6.79;100.00;102363.47;5051583;28;20039;-54
2022/01/29 08:05:49;;;;;;;49.03;27.25;;;;;;;6.77;100.00;102351.88;5053350;28;20021;-53
2022/01/29 08:08:14;;;;;;;46.33;27.13;;;;;;;6.84;100.00;102353.44;5049190;28;20038;-53
2022/01/29 08:10:39;;;;;;;46.47;26.25;;;;;;;6.85;100.00;102341.31;5044794;28;20087;-53
2022/01/29 08:13:04;;;;;;;45.53;25.67;;;;;;;6.88;100.00;102351.03;5053733;28;20025;-53
2022/01/29 08:15:30;;;;;;;49.35;28.95;;;;;;;6.89;100.00;102355.44;5064870;28;20037;-53
2022/01/29 08:17:55;;;;;;;45.88;25.50;;;;;;;6.94;100.00;102354.72;5062527;28;20094;-49
2022/01/29 08:20:20;;;;;;;48.20;28.13;;;;;;;6.92;100.00;102337.59;5053096;28;20029;-50
2022/01/29 08:22:47;;;;;;;49.58;27.80;;;;;;;6.97;100.00;102333.03;5053193;28;20024;-53
2022/01/29 08:25:12;;;;;;;47.67;27.98;;;;;;;7.01;100.00;102330.63;5053193;28;20056;-51
2022/01/29 08:27:38;;;;;;;46.80;26.83;;;;;;;7.03;100.00;102331.22;5051558;28;20053;-53
2022/01/29 08:30:04;;;;;;;45.80;26.75;;;;;;;7.11;100.00;102330.81;5052887;28;20025;-52
2022/01/29 08:32:29;;;;;;;45.75;25.85;;;;;;;7.08;100.00;102327.75;5052946;28;20044;-53
2022/01/29 08:34:55;;;;;;;42.53;25.15;;;;;;;7.11;100.00;102319.81;5052861;28;20047;-54
2022/01/29 08:37:20;;;;;;;45.83;26.33;;;;;;;7.14;100.00;102327.56;5051678;28;20456;-56
2022/01/29 08:39:45;;;;;;;44.03;26.15;;;;;;;7.18;100.00;102327.91;5052944;28;20028;-54
2022/01/29 08:42:11;;;;;;;45.75;26.10;;;;;;;7.25;100.00;102317.59;5052848;28;20090;-53
2022/01/29 08:44:36;;;;;;;46.65;27.02;;;;;;;7.26;100.00;102311.00;5052541;28;20025;-53
2022/01/29 08:47:02;;;;;;;44.30;25.73;;;;;;;7.29;100.00;102317.94;5032154;28;20021;-54
2022/01/29 08:49:28;;;;;;;45.08;24.90;;;;;;;7.30;100.00;102323.19;5029470;28;20033;-54
2022/01/29 08:51:53;;;;;;;40.45;24.17;;;;;;;7.35;100.00;102319.69;5029872;28;20029;-53
2022/01/29 08:54:19;;;;;;;45.45;24.33;;;;;;;7.37;100.00;102311.19;5028460;28;20049;-54
2022/01/29 08:56:44;;;;;;;44.70;25.80;;;;;;;7.43;100.00;102310.19;5030358;28;20033;-53
2022/01/29 08:59:10;;;;;;;45.65;26.50;;;;;;;7.44;100.00;102300.84;5030501;28;20063;-53
2022/01/29 09:01:36;;;;;;;44.55;25.70;;;;;;;7.47;100.00;102303.09;5030346;28;20025;-53
2022/01/29 09:04:02;;;;;;;42.60;23.35;;;;;;;7.53;100.00;102295.75;5030374;28;20155;-53
2022/01/29 09:06:27;;;;;;;41.42;25.20;;;;;;;7.47;100.00;102287.41;5047781;28;20021;-53
2022/01/29 09:08:52;;;;;;;40.33;24.17;;;;;;;7.50;100.00;102291.59;5057221;28;20102;-54
2022/01/29 09:11:19;;;;;;;40.63;23.33;;;;;;;7.47;100.00;102281.06;5056706;28;20041;-55
2022/01/29 09:13:45;;;;;;;42.85;23.73;;;;;;;7.54;100.00;102289.16;5059244;28;20029;-54
2022/01/29 09:16:10;;;;;;;43.88;25.08;;;;;;;7.53;100.00;102285.59;5058101;28;20064;-54
2022/01/29 09:18:36;;;;;;;41.33;23.20;;;;;;;7.59;100.00;102286.50;5058895;28;20440;-53
2022/01/29 09:21:02;;;;;;;39.92;23.38;;;;;;;7.68;100.00;102285.00;5056905;28;20029;-53
2022/01/29 09:23:27;;;;;;;40.78;23.42;;;;;;;7.71;100.00;102286.41;5058011;28;20029;-52
2022/01/29 09:25:53;;;;;;;42.08;23.25;;;;;;;7.71;100.00;102273.47;5057875;28;20017;-54
2022/01/29 09:28:18;;;;;;;38.90;22.38;;;;;;;7.72;100.00;102282.56;5057955;28;20060;-55
2022/01/29 09:30:45;;;;;;;39.63;24.55;;;;;;;7.75;100.00;102284.81;5058147;28;20024;-53
2022/01/29 09:33:11;;;;;;;36.35;21.35;;;;;;;7.78;100.00;102281.56;5058173;28;20044;-55
2022/01/29 09:35:38;;;;;;;38.78;22.58;;;;;;;7.80;100.00;102288.47;5058423;28;20021;-55
2022/01/29 09:38:04;;;;;;;39.08;23.17;;;;;;;7.85;100.00;102290.47;5057635;28;20024;-54
2022/01/29 09:40:29;;;;;;;36.92;22.02;;;;;;;7.88;100.00;102294.69;5059107;28;20353;-54
2022/01/29 09:42:55;;;;;;;36.28;22.08;;;;;;;7.92;100.00;102285.66;5057593;28;20095;-55
2022/01/29 09:45:22;;;;;;;38.60;23.75;;;;;;;7.86;100.00;102278.38;5058819;28;20033;-55
2022/01/29 09:47:48;;;;;;;37.80;22.10;;;;;;;7.95;100.00;102285.13;5059134;28;20054;-54
2022/01/29 09:50:16;;;;;;;36.80;21.55;;;;;;;7.99;100.00;102287.38;5058938;28;20025;-55
2022/01/29 09:52:42;;;;;;;34.40;21.00;;;;;;;8.04;99.99;102281.94;5057572;28;20082;-52
2022/01/29 09:55:08;;;;;;;36.08;21.40;;;;;;;8.01;100.00;102291.53;5058917;28;20041;-54
2022/01/29 09:57:34;;;;;;;41.70;22.52;;;;;;;8.03;100.00;102289.38;5058846;28;20032;-53
2022/01/29 09:59:59;;;;;;;35.88;20.60;;;;;;;8.07;99.91;102292.47;5058697;28;20025;-56
2022/01/29 10:02:25;;;;;;;33.15;19.38;;;;;;;8.15;99.39;102286.50;5058726;28;20486;-55
2022/01/29 10:04:56;;;;;;;31.95;18.75;;;;;;;8.15;99.24;102293.94;5058853;28;20283;-54
2022/01/29 10:07:29;;;;;;;34.45;21.10;;;;;;;8.16;99.37;102298.38;5057546;28;20434;-53
2022/01/29 10:09:56;;;;;;;36.50;20.73;;;;;;;8.22;99.10;102283.56;5058829;28;20021;-54
2022/01/29 10:12:26;;;;;;;33.58;19.15;;;;;;;8.32;97.96;102291.97;5058550;28;20040;-54
2022/01/29 10:15:02;;;;;;;30.00;17.50;;;;;;;8.35;97.92;102283.22;5058867;28;20484;-55
2022/01/29 10:17:41;;;;;;;30.23;18.35;;;;;;;8.41;97.69;102282.19;5056375;28;20040;-55
2022/01/29 10:20:17;;;;;;;32.05;19.27;;;;;;;8.33;97.54;102271.59;5055406;28;20473;-55
2022/01/29 10:22:48;;;;;;;33.50;19.92;;;;;;;8.43;96.86;102262.59;5055240;28;20047;-55
2022/01/29 10:25:26;;;;;;;33.70;18.55;;;;;;;8.40;97.32;102274.16;5055561;28;20069;-53
2022/01/29 10:28:10;;;;;;;28.67;17.23;;;;;;;8.50;96.56;102262.44;5055404;28;20033;-54
2022/01/29 10:30:53;;;;;;;30.42;17.52;;;;;;;8.48;96.62;102243.41;5055467;28;20072;-51
2022/01/29 10:33:26;;;;;;;28.70;16.92;;;;;;;8.55;96.42;102241.28;5055445;28;20064;-54
2022/01/29 10:35:57;;;;;;;29.25;17.58;;;;;;;8.62;95.66;102229.19;5055514;28;20039;-54
2022/01/29 10:38:27;;;;;;;28.33;16.35;;;;;;;8.63;95.71;102215.16;5055149;28;20017;-55
2022/01/29 10:41:16;;;;;;;28.92;15.80;;;;;;;8.80;95.75;102239.88;5055526;28;20095;-55
2022/01/29 10:44:00;;;;;;;28.38;15.70;;;;;;;8.82;95.05;102234.13;5054383;28;20028;-54
2022/01/29 10:46:29;;;;;;;28.88;16.63;;;;;;;8.85;94.67;102230.81;5053524;28;20044;-54
2022/01/29 10:48:56;;;;;;;27.20;16.08;;;;;;;8.83;94.21;102225.56;5053570;28;20068;-54
2022/01/29 10:51:21;;;;;;;27.52;15.30;;;;;;;8.85;94.41;102226.16;5055178;28;20443;-55
2022/01/29 10:53:47;;;;;;;30.17;16.45;;;;;;;8.89;94.58;102224.53;5054973;28;20084;-55
2022/01/29 10:56:12;;;;;;;25.95;15.02;;;;;;;8.98;93.19;102224.91;5053782;28;20115;-54
2022/01/29 10:58:45;;;;;;;26.15;15.45;;;;;;;9.02;93.20;102226.03;5055100;28;20384;-54
2022/01/29 11:01:19;;;;;;;26.25;15.15;;;;;;;8.99;93.32;102221.03;5055595;28;20024;-55
2022/01/29 11:03:44;;;;;;;25.40;14.20;;;;;;;9.03;92.75;102219.41;5054661;28;20448;-54
2022/01/29 11:06:13;;;;;;;27.60;16.13;;;;;;;9.03;93.15;102210.31;5054041;28;20487;-54
2022/01/29 11:08:39;;;;;;;30.40;15.85;;;;;;;9.02;92.80;102216.91;5054743;28;20353;-54
2022/01/29 11:11:10;;;;;;;27.75;15.57;;;;;;;9.10;92.71;102210.09;5054902;28;20029;-53
2022/01/29 11:13:37;;;;;;;23.42;13.68;;;;;;;9.16;91.46;102209.84;5055253;28;20036;-54
2022/01/29 11:16:03;;;;;;;27.25;15.35;;;;;;;9.12;91.99;102217.00;5054913;28;20029;-54
2022/01/29 11:18:31;;;;;;;22.58;12.10;;;;;;;9.25;90.63;102206.63;5054717;28;20044;-55
2022/01/29 11:20:57;;;;;;;23.70;12.50;;;;;;;9.21;90.77;102192.50;5053934;28;20025;-55
2022/01/29 11:23:23;;;;;;;23.48;11.85;;;;;;;9.25;90.27;102192.84;5054539;28;20127;-56